sensor_id;sensor_type;location;lat;lon;timestamp;P1;durP1;ratioP1;P2;durP2;ratioP2
76675;SDS011;69204;55.350;36.906;2023-04-24T00:04:49;40.35;;;19.52;;
76675;SDS011;69204;55.350;36.906;2023-04-24T00:09:50;66.93;;;31.48;;
76675;SDS011;69204;55.350;36.906;2023-04-24T00:14:51;78.00;;;36.63;;
76675;SDS011;69204;55.350;36.906;2023-04-24T00:19:52;65.87;;;32.20;;
76675;SDS011;69204;55.350;36.906;2023-04-24T00:24:58;24.67;;;13.82;;
76675;SDS011;69204;55.350;36.906;2023-04-24T00:30:03;18.27;;;11.13;;
76675;SDS011;69204;55.350;36.906;2023-04-24T00:35:05;30.48;;;15.50;;
76675;SDS011;69204;55.350;36.906;2023-04-24T00:40:06;28.95;;;13.80;;
76675;SDS011;69204;55.350;36.906;2023-04-24T00:45:08;25.40;;;12.53;;
76675;SDS011;69204;55.350;36.906;2023-04-24T00:50:14;17.27;;;10.80;;
76675;SDS011;69204;55.350;36.906;2023-04-24T00:55:16;17.30;;;10.73;;
76675;SDS011;69204;55.350;36.906;2023-04-24T01:00:17;14.25;;;7.95;;
76675;SDS011;69204;55.350;36.906;2023-04-24T01:05:19;15.20;;;8.38;;
76675;SDS011;69204;55.350;36.906;2023-04-24T01:10:20;13.90;;;7.73;;
76675;SDS011;69204;55.350;36.906;2023-04-24T01:15:21;13.95;;;7.85;;
76675;SDS011;69204;55.350;36.906;2023-04-24T01:20:22;15.80;;;8.73;;
76675;SDS011;69204;55.350;36.906;2023-04-24T01:25:26;15.45;;;8.55;;
76675;SDS011;69204;55.350;36.906;2023-04-24T01:30:34;17.65;;;9.18;;
76675;SDS011;69204;55.350;36.906;2023-04-24T01:35:35;19.30;;;9.70;;
76675;SDS011;69204;55.350;36.906;2023-04-24T01:40:37;19.13;;;9.88;;
76675;SDS011;69204;55.350;36.906;2023-04-24T01:45:38;16.07;;;9.27;;
76675;SDS011;69204;55.350;36.906;2023-04-24T01:50:40;18.73;;;10.25;;
76675;SDS011;69204;55.350;36.906;2023-04-24T01:55:41;27.55;;;15.05;;
76675;SDS011;69204;55.350;36.906;2023-04-24T02:00:42;32.17;;;16.90;;
76675;SDS011;69204;55.350;36.906;2023-04-24T02:05:44;26.70;;;14.43;;
76675;SDS011;69204;55.350;36.906;2023-04-24T02:10:45;162.23;;;54.73;;
76675;SDS011;69204;55.350;36.906;2023-04-24T02:15:46;182.55;;;77.55;;
76675;SDS011;69204;55.350;36.906;2023-04-24T02:20:53;26.30;;;13.93;;
76675;SDS011;69204;55.350;36.906;2023-04-24T02:25:54;66.30;;;29.67;;
76675;SDS011;69204;55.350;36.906;2023-04-24T02:31:03;130.20;;;54.53;;
76675;SDS011;69204;55.350;36.906;2023-04-24T02:36:05;89.87;;;44.57;;
76675;SDS011;69204;55.350;36.906;2023-04-24T02:41:07;30.67;;;17.25;;
76675;SDS011;69204;55.350;36.906;2023-04-24T02:46:09;76.00;;;38.00;;
76675;SDS011;69204;55.350;36.906;2023-04-24T02:51:10;92.67;;;44.93;;
76675;SDS011;69204;55.350;36.906;2023-04-24T02:56:13;59.70;;;33.13;;
76675;SDS011;69204;55.350;36.906;2023-04-24T03:01:15;62.70;;;33.17;;
76675;SDS011;69204;55.350;36.906;2023-04-24T03:06:16;32.83;;;17.92;;
76675;SDS011;69204;55.350;36.906;2023-04-24T03:11:17;19.63;;;10.30;;
76675;SDS011;69204;55.350;36.906;2023-04-24T03:16:18;19.53;;;9.97;;
76675;SDS011;69204;55.350;36.906;2023-04-24T03:21:19;17.48;;;8.95;;
76675;SDS011;69204;55.350;36.906;2023-04-24T03:26:21;14.60;;;9.97;;
76675;SDS011;69204;55.350;36.906;2023-04-24T03:31:22;18.42;;;11.30;;
76675;SDS011;69204;55.350;36.906;2023-04-24T03:36:23;20.80;;;10.68;;
76675;SDS011;69204;55.350;36.906;2023-04-24T03:41:26;20.42;;;10.85;;
76675;SDS011;69204;55.350;36.906;2023-04-24T03:46:27;18.08;;;10.25;;
76675;SDS011;69204;55.350;36.906;2023-04-24T03:51:28;13.37;;;9.97;;
76675;SDS011;69204;55.350;36.906;2023-04-24T03:56:33;13.95;;;9.23;;
76675;SDS011;69204;55.350;36.906;2023-04-24T04:01:35;21.00;;;10.50;;
76675;SDS011;69204;55.350;36.906;2023-04-24T04:06:40;14.40;;;8.53;;
76675;SDS011;69204;55.350;36.906;2023-04-24T04:11:42;13.75;;;8.75;;
76675;SDS011;69204;55.350;36.906;2023-04-24T04:16:43;14.93;;;8.13;;
76675;SDS011;69204;55.350;36.906;2023-04-24T04:21:45;13.77;;;8.57;;
76675;SDS011;69204;55.350;36.906;2023-04-24T04:26:46;16.13;;;8.60;;
76675;SDS011;69204;55.350;36.906;2023-04-24T04:31:47;12.00;;;8.23;;
76675;SDS011;69204;55.350;36.906;2023-04-24T04:36:48;12.48;;;8.05;;
76675;SDS011;69204;55.350;36.906;2023-04-24T04:41:50;14.57;;;9.00;;
76675;SDS011;69204;55.350;36.906;2023-04-24T04:46:51;13.48;;;8.25;;
76675;SDS011;69204;55.350;36.906;2023-04-24T04:51:53;12.70;;;8.27;;
76675;SDS011;69204;55.350;36.906;2023-04-24T04:56:54;11.80;;;7.50;;
76675;SDS011;69204;55.350;36.906;2023-04-24T05:01:56;12.73;;;8.02;;
76675;SDS011;69204;55.350;36.906;2023-04-24T05:06:57;15.13;;;7.93;;
76675;SDS011;69204;55.350;36.906;2023-04-24T05:11:58;11.75;;;8.20;;
76675;SDS011;69204;55.350;36.906;2023-04-24T05:16:59;10.02;;;7.03;;
76675;SDS011;69204;55.350;36.906;2023-04-24T05:22:03;13.27;;;7.33;;
76675;SDS011;69204;55.350;36.906;2023-04-24T05:27:05;13.05;;;7.90;;
76675;SDS011;69204;55.350;36.906;2023-04-24T05:32:06;14.53;;;8.87;;
76675;SDS011;69204;55.350;36.906;2023-04-24T05:37:07;10.88;;;7.07;;
76675;SDS011;69204;55.350;36.906;2023-04-24T05:42:10;11.50;;;7.25;;
76675;SDS011;69204;55.350;36.906;2023-04-24T05:47:11;13.20;;;6.87;;
76675;SDS011;69204;55.350;36.906;2023-04-24T05:52:14;9.73;;;6.82;;
76675;SDS011;69204;55.350;36.906;2023-04-24T05:57:15;9.53;;;6.50;;
76675;SDS011;69204;55.350;36.906;2023-04-24T06:02:16;14.05;;;7.03;;
76675;SDS011;69204;55.350;36.906;2023-04-24T06:07:18;11.80;;;7.13;;
76675;SDS011;69204;55.350;36.906;2023-04-24T06:12:19;12.77;;;6.60;;
76675;SDS011;69204;55.350;36.906;2023-04-24T06:17:20;10.02;;;6.15;;
76675;SDS011;69204;55.350;36.906;2023-04-24T06:22:24;10.83;;;5.90;;
76675;SDS011;69204;55.350;36.906;2023-04-24T06:27:25;8.80;;;5.80;;
76675;SDS011;69204;55.350;36.906;2023-04-24T06:32:26;10.77;;;6.73;;
76675;SDS011;69204;55.350;36.906;2023-04-24T06:37:28;9.65;;;6.20;;
76675;SDS011;69204;55.350;36.906;2023-04-24T06:42:29;10.48;;;6.35;;
76675;SDS011;69204;55.350;36.906;2023-04-24T06:47:30;10.87;;;5.23;;
76675;SDS011;69204;55.350;36.906;2023-04-24T06:52:40;9.85;;;5.88;;
76675;SDS011;69204;55.350;36.906;2023-04-24T06:57:41;12.63;;;6.17;;
76675;SDS011;69204;55.350;36.906;2023-04-24T07:02:42;12.07;;;5.30;;
76675;SDS011;69204;55.350;36.906;2023-04-24T07:07:43;20.08;;;5.38;;
76675;SDS011;69204;55.350;36.906;2023-04-24T07:12:45;8.57;;;5.03;;
76675;SDS011;69204;55.350;36.906;2023-04-24T07:17:47;10.05;;;6.70;;
76675;SDS011;69204;55.350;36.906;2023-04-24T07:22:48;8.00;;;5.50;;
76675;SDS011;69204;55.350;36.906;2023-04-24T07:27:49;10.48;;;5.40;;
76675;SDS011;69204;55.350;36.906;2023-04-24T07:32:50;7.57;;;5.03;;
76675;SDS011;69204;55.350;36.906;2023-04-24T07:37:52;13.05;;;5.10;;
76675;SDS011;69204;55.350;36.906;2023-04-24T07:42:53;8.93;;;5.50;;
76675;SDS011;69204;55.350;36.906;2023-04-24T07:47:54;10.40;;;4.90;;
76675;SDS011;69204;55.350;36.906;2023-04-24T07:52:55;7.53;;;4.78;;
76675;SDS011;69204;55.350;36.906;2023-04-24T07:57:56;20.00;;;6.23;;
76675;SDS011;69204;55.350;36.906;2023-04-24T08:02:57;12.10;;;6.65;;
76675;SDS011;69204;55.350;36.906;2023-04-24T08:07:58;16.00;;;8.75;;
76675;SDS011;69204;55.350;36.906;2023-04-24T08:12:59;12.23;;;6.30;;
76675;SDS011;69204;55.350;36.906;2023-04-24T08:18:00;10.90;;;4.60;;
76675;SDS011;69204;55.350;36.906;2023-04-24T08:23:01;8.87;;;4.40;;
76675;SDS011;69204;55.350;36.906;2023-04-24T08:28:02;7.78;;;4.80;;
76675;SDS011;69204;55.350;36.906;2023-04-24T08:33:04;8.50;;;5.10;;
76675;SDS011;69204;55.350;36.906;2023-04-24T08:38:05;8.10;;;5.23;;
76675;SDS011;69204;55.350;36.906;2023-04-24T08:43:06;7.97;;;4.75;;
76675;SDS011;69204;55.350;36.906;2023-04-24T08:48:07;10.40;;;5.10;;
76675;SDS011;69204;55.350;36.906;2023-04-24T08:53:18;8.48;;;4.28;;
76675;SDS011;69204;55.350;36.906;2023-04-24T08:58:20;7.57;;;4.50;;
76675;SDS011;69204;55.350;36.906;2023-04-24T09:03:22;8.60;;;4.13;;
76675;SDS011;69204;55.350;36.906;2023-04-24T09:08:24;9.02;;;4.50;;
76675;SDS011;69204;55.350;36.906;2023-04-24T09:13:26;7.43;;;4.60;;
76675;SDS011;69204;55.350;36.906;2023-04-24T09:18:27;10.20;;;4.38;;
76675;SDS011;69204;55.350;36.906;2023-04-24T09:23:29;13.32;;;5.25;;
76675;SDS011;69204;55.350;36.906;2023-04-24T09:28:32;10.90;;;4.90;;
76675;SDS011;69204;55.350;36.906;2023-04-24T09:33:35;8.88;;;4.50;;
76675;SDS011;69204;55.350;36.906;2023-04-24T09:38:37;8.40;;;4.30;;
76675;SDS011;69204;55.350;36.906;2023-04-24T09:43:39;7.73;;;4.47;;
76675;SDS011;69204;55.350;36.906;2023-04-24T09:48:40;8.95;;;5.15;;
76675;SDS011;69204;55.350;36.906;2023-04-24T09:53:45;7.17;;;4.57;;
76675;SDS011;69204;55.350;36.906;2023-04-24T09:58:47;11.40;;;4.80;;
76675;SDS011;69204;55.350;36.906;2023-04-24T10:03:50;6.72;;;3.90;;
76675;SDS011;69204;55.350;36.906;2023-04-24T10:08:52;6.73;;;4.43;;
76675;SDS011;69204;55.350;36.906;2023-04-24T10:13:53;9.20;;;4.63;;
76675;SDS011;69204;55.350;36.906;2023-04-24T10:18:55;7.00;;;4.23;;
76675;SDS011;69204;55.350;36.906;2023-04-24T10:24:00;9.18;;;4.18;;
76675;SDS011;69204;55.350;36.906;2023-04-24T10:29:03;9.20;;;3.70;;
76675;SDS011;69204;55.350;36.906;2023-04-24T10:34:10;7.87;;;4.17;;
76675;SDS011;69204;55.350;36.906;2023-04-24T10:39:11;8.25;;;4.20;;
76675;SDS011;69204;55.350;36.906;2023-04-24T10:44:14;7.50;;;4.40;;
76675;SDS011;69204;55.350;36.906;2023-04-24T10:49:16;12.35;;;6.25;;
76675;SDS011;69204;55.350;36.906;2023-04-24T10:59:37;10.50;;;5.73;;
76675;SDS011;69204;55.350;36.906;2023-04-24T11:04:38;9.68;;;5.32;;
76675;SDS011;69204;55.350;36.906;2023-04-24T11:09:42;7.33;;;4.70;;
76675;SDS011;69204;55.350;36.906;2023-04-24T11:15:05;10.20;;;5.68;;
76675;SDS011;69204;55.350;36.906;2023-04-24T11:20:07;9.10;;;5.60;;
76675;SDS011;69204;55.350;36.906;2023-04-24T11:25:09;8.97;;;5.50;;
76675;SDS011;69204;55.350;36.906;2023-04-24T11:30:19;9.85;;;5.55;;
76675;SDS011;69204;55.350;36.906;2023-04-24T11:35:21;10.23;;;6.10;;
76675;SDS011;69204;55.350;36.906;2023-04-24T11:40:30;9.35;;;4.80;;
76675;SDS011;69204;55.350;36.906;2023-04-24T11:45:34;9.65;;;5.25;;
76675;SDS011;69204;55.350;36.906;2023-04-24T11:50:38;9.77;;;5.37;;
76675;SDS011;69204;55.350;36.906;2023-04-24T11:55:49;7.88;;;5.13;;
76675;SDS011;69204;55.350;36.906;2023-04-24T12:00:55;7.50;;;4.70;;
76675;SDS011;69204;55.350;36.906;2023-04-24T12:06:05;8.27;;;4.50;;
76675;SDS011;69204;55.350;36.906;2023-04-24T12:11:09;8.00;;;4.53;;
76675;SDS011;69204;55.350;36.906;2023-04-24T12:16:14;7.10;;;4.67;;
76675;SDS011;69204;55.350;36.906;2023-04-24T12:26:17;10.23;;;4.07;;
76675;SDS011;69204;55.350;36.906;2023-04-24T12:31:20;11.85;;;6.00;;
76675;SDS011;69204;55.350;36.906;2023-04-24T12:36:22;7.88;;;4.35;;
76675;SDS011;69204;55.350;36.906;2023-04-24T12:41:23;5.97;;;3.03;;
76675;SDS011;69204;55.350;36.906;2023-04-24T12:46:24;7.47;;;3.22;;
76675;SDS011;69204;55.350;36.906;2023-04-24T12:51:25;9.10;;;4.07;;
76675;SDS011;69204;55.350;36.906;2023-04-24T12:56:27;9.80;;;3.45;;
76675;SDS011;69204;55.350;36.906;2023-04-24T13:01:28;8.63;;;3.53;;
76675;SDS011;69204;55.350;36.906;2023-04-24T13:06:34;8.37;;;3.27;;
76675;SDS011;69204;55.350;36.906;2023-04-24T13:11:35;6.78;;;3.40;;
76675;SDS011;69204;55.350;36.906;2023-04-24T13:16:36;8.23;;;3.95;;
76675;SDS011;69204;55.350;36.906;2023-04-24T13:21:37;6.70;;;3.50;;
76675;SDS011;69204;55.350;36.906;2023-04-24T13:26:38;9.18;;;3.35;;
76675;SDS011;69204;55.350;36.906;2023-04-24T13:31:39;8.57;;;3.33;;
76675;SDS011;69204;55.350;36.906;2023-04-24T13:36:46;6.43;;;3.47;;
76675;SDS011;69204;55.350;36.906;2023-04-24T13:41:48;10.30;;;3.90;;
76675;SDS011;69204;55.350;36.906;2023-04-24T13:46:50;8.02;;;3.42;;
76675;SDS011;69204;55.350;36.906;2023-04-24T13:51:53;5.80;;;3.67;;
76675;SDS011;69204;55.350;36.906;2023-04-24T13:56:57;6.77;;;3.53;;
76675;SDS011;69204;55.350;36.906;2023-04-24T14:01:58;7.68;;;3.40;;
76675;SDS011;69204;55.350;36.906;2023-04-24T14:06:59;8.33;;;3.77;;
76675;SDS011;69204;55.350;36.906;2023-04-24T14:12:00;7.03;;;3.42;;
76675;SDS011;69204;55.350;36.906;2023-04-24T14:17:02;7.95;;;3.25;;
76675;SDS011;69204;55.350;36.906;2023-04-24T14:22:03;7.77;;;3.70;;
76675;SDS011;69204;55.350;36.906;2023-04-24T14:27:04;9.73;;;3.55;;
76675;SDS011;69204;55.350;36.906;2023-04-24T14:32:05;5.97;;;3.53;;
76675;SDS011;69204;55.350;36.906;2023-04-24T14:37:06;6.85;;;2.90;;
76675;SDS011;69204;55.350;36.906;2023-04-24T14:42:08;12.45;;;6.00;;
76675;SDS011;69204;55.350;36.906;2023-04-24T14:47:09;8.37;;;3.80;;
76675;SDS011;69204;55.350;36.906;2023-04-24T14:52:10;11.68;;;3.78;;
76675;SDS011;69204;55.350;36.906;2023-04-24T14:57:11;7.60;;;3.63;;
76675;SDS011;69204;55.350;36.906;2023-04-24T15:02:13;9.60;;;3.75;;
76675;SDS011;69204;55.350;36.906;2023-04-24T15:07:14;10.18;;;3.60;;
76675;SDS011;69204;55.350;36.906;2023-04-24T15:12:15;5.47;;;3.40;;
76675;SDS011;69204;55.350;36.906;2023-04-24T15:17:16;5.10;;;3.00;;
76675;SDS011;69204;55.350;36.906;2023-04-24T15:22:17;6.93;;;2.87;;
76675;SDS011;69204;55.350;36.906;2023-04-24T15:27:18;5.55;;;3.13;;
76675;SDS011;69204;55.350;36.906;2023-04-24T15:32:19;7.33;;;3.50;;
76675;SDS011;69204;55.350;36.906;2023-04-24T15:37:20;8.38;;;2.92;;
76675;SDS011;69204;55.350;36.906;2023-04-24T15:42:21;6.93;;;3.15;;
76675;SDS011;69204;55.350;36.906;2023-04-24T15:47:22;10.27;;;2.93;;
76675;SDS011;69204;55.350;36.906;2023-04-24T15:52:23;4.93;;;3.13;;
76675;SDS011;69204;55.350;36.906;2023-04-24T15:57:30;11.17;;;3.10;;
76675;SDS011;69204;55.350;36.906;2023-04-24T16:02:31;6.53;;;3.30;;
76675;SDS011;69204;55.350;36.906;2023-04-24T16:07:33;7.28;;;2.85;;
76675;SDS011;69204;55.350;36.906;2023-04-24T16:12:36;7.23;;;3.10;;
76675;SDS011;69204;55.350;36.906;2023-04-24T16:17:37;6.70;;;3.50;;
76675;SDS011;69204;55.350;36.906;2023-04-24T16:22:38;6.73;;;3.50;;
76675;SDS011;69204;55.350;36.906;2023-04-24T16:27:40;5.53;;;3.00;;
76675;SDS011;69204;55.350;36.906;2023-04-24T16:32:41;6.13;;;3.10;;
76675;SDS011;69204;55.350;36.906;2023-04-24T16:37:42;7.20;;;3.10;;
76675;SDS011;69204;55.350;36.906;2023-04-24T16:42:43;7.63;;;3.42;;
76675;SDS011;69204;55.350;36.906;2023-04-24T16:47:44;9.87;;;4.53;;
76675;SDS011;69204;55.350;36.906;2023-04-24T16:52:45;6.13;;;3.85;;
76675;SDS011;69204;55.350;36.906;2023-04-24T16:57:50;8.40;;;4.07;;
76675;SDS011;69204;55.350;36.906;2023-04-24T17:02:51;19.10;;;8.97;;
76675;SDS011;69204;55.350;36.906;2023-04-24T17:07:52;37.05;;;17.40;;
76675;SDS011;69204;55.350;36.906;2023-04-24T17:12:53;17.10;;;7.47;;
76675;SDS011;69204;55.350;36.906;2023-04-24T17:17:54;9.43;;;4.15;;
76675;SDS011;69204;55.350;36.906;2023-04-24T17:22:56;8.18;;;4.32;;
76675;SDS011;69204;55.350;36.906;2023-04-24T17:27:58;9.77;;;4.80;;
76675;SDS011;69204;55.350;36.906;2023-04-24T17:32:59;29.48;;;8.88;;
76675;SDS011;69204;55.350;36.906;2023-04-24T17:38:00;26.57;;;10.20;;
76675;SDS011;69204;55.350;36.906;2023-04-24T17:43:01;32.72;;;11.13;;
76675;SDS011;69204;55.350;36.906;2023-04-24T17:48:02;20.13;;;11.70;;
76675;SDS011;69204;55.350;36.906;2023-04-24T17:53:04;14.37;;;8.00;;
76675;SDS011;69204;55.350;36.906;2023-04-24T17:58:05;14.45;;;8.10;;
76675;SDS011;69204;55.350;36.906;2023-04-24T18:03:07;17.53;;;8.57;;
76675;SDS011;69204;55.350;36.906;2023-04-24T18:08:08;21.55;;;11.25;;
76675;SDS011;69204;55.350;36.906;2023-04-24T18:13:09;35.33;;;16.33;;
76675;SDS011;69204;55.350;36.906;2023-04-24T18:18:10;39.87;;;19.07;;
76675;SDS011;69204;55.350;36.906;2023-04-24T18:23:12;43.15;;;21.92;;
76675;SDS011;69204;55.350;36.906;2023-04-24T18:28:13;45.53;;;22.17;;
76675;SDS011;69204;55.350;36.906;2023-04-24T18:33:14;46.13;;;19.27;;
76675;SDS011;69204;55.350;36.906;2023-04-24T18:38:15;36.47;;;16.10;;
76675;SDS011;69204;55.350;36.906;2023-04-24T18:43:16;23.77;;;12.03;;
76675;SDS011;69204;55.350;36.906;2023-04-24T18:48:17;30.77;;;15.20;;
76675;SDS011;69204;55.350;36.906;2023-04-24T18:53:18;39.80;;;19.07;;
76675;SDS011;69204;55.350;36.906;2023-04-24T18:58:22;28.20;;;14.82;;
76675;SDS011;69204;55.350;36.906;2023-04-24T19:03:23;29.33;;;14.43;;
76675;SDS011;69204;55.350;36.906;2023-04-24T19:08:24;23.98;;;12.75;;
76675;SDS011;69204;55.350;36.906;2023-04-24T19:13:25;32.40;;;14.07;;
76675;SDS011;69204;55.350;36.906;2023-04-24T19:18:26;30.00;;;12.80;;
76675;SDS011;69204;55.350;36.906;2023-04-24T19:23:28;34.38;;;16.67;;
76675;SDS011;69204;55.350;36.906;2023-04-24T19:28:29;27.07;;;12.30;;
76675;SDS011;69204;55.350;36.906;2023-04-24T19:33:31;28.27;;;11.82;;
76675;SDS011;69204;55.350;36.906;2023-04-24T19:38:31;20.20;;;10.18;;
76675;SDS011;69204;55.350;36.906;2023-04-24T19:43:32;31.20;;;16.30;;
76675;SDS011;69204;55.350;36.906;2023-04-24T19:48:34;39.58;;;17.42;;
76675;SDS011;69204;55.350;36.906;2023-04-24T19:53:35;30.47;;;16.70;;
76675;SDS011;69204;55.350;36.906;2023-04-24T19:58:36;40.03;;;18.35;;
76675;SDS011;69204;55.350;36.906;2023-04-24T20:03:37;29.83;;;13.90;;
76675;SDS011;69204;55.350;36.906;2023-04-24T20:08:38;36.07;;;17.57;;
76675;SDS011;69204;55.350;36.906;2023-04-24T20:13:39;22.15;;;11.32;;
76675;SDS011;69204;55.350;36.906;2023-04-24T20:18:40;23.53;;;9.13;;
76675;SDS011;69204;55.350;36.906;2023-04-24T20:23:44;22.35;;;7.90;;
76675;SDS011;69204;55.350;36.906;2023-04-24T20:28:45;18.63;;;8.80;;
76675;SDS011;69204;55.350;36.906;2023-04-24T20:33:46;17.98;;;8.02;;
76675;SDS011;69204;55.350;36.906;2023-04-24T20:38:47;12.13;;;5.82;;
76675;SDS011;69204;55.350;36.906;2023-04-24T20:43:48;12.47;;;5.90;;
76675;SDS011;69204;55.350;36.906;2023-04-24T20:48:49;12.52;;;6.45;;
76675;SDS011;69204;55.350;36.906;2023-04-24T20:53:50;17.60;;;9.10;;
76675;SDS011;69204;55.350;36.906;2023-04-24T20:58:51;19.65;;;9.25;;
76675;SDS011;69204;55.350;36.906;2023-04-24T21:03:53;19.05;;;8.45;;
76675;SDS011;69204;55.350;36.906;2023-04-24T21:08:54;16.37;;;7.10;;
76675;SDS011;69204;55.350;36.906;2023-04-24T21:13:55;17.65;;;7.15;;
76675;SDS011;69204;55.350;36.906;2023-04-24T21:18:56;11.80;;;5.83;;
76675;SDS011;69204;55.350;36.906;2023-04-24T21:24:00;12.52;;;5.40;;
76675;SDS011;69204;55.350;36.906;2023-04-24T21:29:03;11.00;;;5.07;;
76675;SDS011;69204;55.350;36.906;2023-04-24T21:34:04;14.93;;;5.03;;
76675;SDS011;69204;55.350;36.906;2023-04-24T21:39:06;8.38;;;5.03;;
76675;SDS011;69204;55.350;36.906;2023-04-24T21:44:07;12.23;;;5.60;;
76675;SDS011;69204;55.350;36.906;2023-04-24T21:49:08;9.25;;;5.50;;
76675;SDS011;69204;55.350;36.906;2023-04-24T21:54:09;13.65;;;6.68;;
76675;SDS011;69204;55.350;36.906;2023-04-24T21:59:11;17.40;;;6.53;;
76675;SDS011;69204;55.350;36.906;2023-04-24T22:04:15;14.25;;;7.93;;
76675;SDS011;69204;55.350;36.906;2023-04-24T22:09:16;12.87;;;6.07;;
76675;SDS011;69204;55.350;36.906;2023-04-24T22:14:19;15.43;;;6.38;;
76675;SDS011;69204;55.350;36.906;2023-04-24T22:19:20;11.23;;;6.30;;
76675;SDS011;69204;55.350;36.906;2023-04-24T22:24:21;10.17;;;6.10;;
76675;SDS011;69204;55.350;36.906;2023-04-24T22:29:22;13.65;;;6.18;;
76675;SDS011;69204;55.350;36.906;2023-04-24T22:34:23;13.17;;;6.17;;
76675;SDS011;69204;55.350;36.906;2023-04-24T22:39:24;13.82;;;5.93;;
76675;SDS011;69204;55.350;36.906;2023-04-24T22:44:26;13.13;;;6.35;;
76675;SDS011;69204;55.350;36.906;2023-04-24T22:49:27;10.33;;;5.93;;
76675;SDS011;69204;55.350;36.906;2023-04-24T22:54:28;13.70;;;6.15;;
76675;SDS011;69204;55.350;36.906;2023-04-24T22:59:31;18.33;;;6.43;;
76675;SDS011;69204;55.350;36.906;2023-04-24T23:04:32;11.02;;;6.22;;
76675;SDS011;69204;55.350;36.906;2023-04-24T23:09:33;13.50;;;6.45;;
76675;SDS011;69204;55.350;36.906;2023-04-24T23:14:34;19.00;;;6.37;;
76675;SDS011;69204;55.350;36.906;2023-04-24T23:19:35;12.82;;;6.18;;
76675;SDS011;69204;55.350;36.906;2023-04-24T23:24:37;15.57;;;6.23;;
76675;SDS011;69204;55.350;36.906;2023-04-24T23:29:38;11.60;;;5.60;;
76675;SDS011;69204;55.350;36.906;2023-04-24T23:34:39;14.32;;;5.90;;
76675;SDS011;69204;55.350;36.906;2023-04-24T23:39:40;10.80;;;5.57;;
76675;SDS011;69204;55.350;36.906;2023-04-24T23:44:42;14.25;;;6.10;;
76675;SDS011;69204;55.350;36.906;2023-04-24T23:49:43;13.10;;;6.10;;
76675;SDS011;69204;55.350;36.906;2023-04-24T23:54:44;15.10;;;5.88;;
76675;SDS011;69204;55.350;36.906;2023-04-24T23:59:49;10.77;;;6.78;;
